createdAt,value
2023-02-08T00:00:14.802Z,-4.20
2023-02-08T00:03:18.980Z,-4.23
2023-02-08T00:06:22.828Z,-4.17
2023-02-08T00:09:26.518Z,-4.20
2023-02-08T00:12:30.339Z,-4.22
2023-02-08T00:15:41.724Z,-4.22
2023-02-08T00:18:45.541Z,-4.23
2023-02-08T00:21:49.363Z,-4.25
2023-02-08T00:24:53.100Z,-4.28
2023-02-08T00:27:56.810Z,-4.33
2023-02-08T00:31:01.949Z,-4.26
2023-02-08T00:34:07.808Z,-4.33
2023-02-08T00:37:12.493Z,-4.38
2023-02-08T00:40:16.134Z,-4.38
2023-02-08T00:43:19.802Z,-4.37
2023-02-08T00:46:25.035Z,-4.37
2023-02-08T00:49:28.758Z,-4.41
2023-02-08T00:52:32.717Z,-4.40
2023-02-08T00:55:36.322Z,-4.45
2023-02-08T00:58:40.748Z,-4.43
2023-02-08T01:01:45.893Z,-4.38
2023-02-08T01:04:49.922Z,-4.38
2023-02-08T01:07:53.597Z,-4.29
2023-02-08T01:11:05.218Z,-4.34
2023-02-08T01:14:08.936Z,-4.36
2023-02-08T01:17:14.017Z,-4.34
2023-02-08T01:20:18.168Z,-4.31
2023-02-08T01:23:21.967Z,-4.34
2023-02-08T01:26:27.160Z,-4.39
2023-02-08T01:29:30.904Z,-4.33
2023-02-08T01:32:35.980Z,-4.27
2023-02-08T01:35:39.762Z,-4.23
2023-02-08T01:38:43.844Z,-4.26
2023-02-08T01:41:47.982Z,-4.29
2023-02-08T01:45:30.169Z,-4.26
2023-02-08T01:48:42.076Z,-4.31
2023-02-08T01:51:51.684Z,-4.36
2023-02-08T01:55:01.359Z,-4.38
2023-02-08T01:58:11.310Z,-4.45
2023-02-08T02:01:17.034Z,-4.52
2023-02-08T02:04:22.804Z,-4.53
2023-02-08T02:07:31.132Z,-4.59
2023-02-08T02:10:38.495Z,-4.67
2023-02-08T02:13:42.960Z,-4.75
2023-02-08T02:16:46.706Z,-4.72
2023-02-08T02:20:09.653Z,-4.83
2023-02-08T02:23:50.008Z,-4.81
2023-02-08T02:27:36.287Z,-4.87
2023-02-08T02:31:42.186Z,-4.89
2023-02-08T02:34:54.094Z,-4.85
2023-02-08T02:38:11.695Z,-4.87
2023-02-08T02:41:41.921Z,-4.90
2023-02-08T02:45:01.151Z,-4.84
2023-02-08T02:48:13.792Z,-4.80
2023-02-08T02:51:27.366Z,-4.84
2023-02-08T02:54:40.051Z,-4.93
2023-02-08T02:57:47.513Z,-4.95
2023-02-08T03:00:55.405Z,-5.00
2023-02-08T03:03:59.970Z,-5.18
2023-02-08T03:07:17.238Z,-5.16
2023-02-08T03:10:46.343Z,-5.18
2023-02-08T03:14:21.187Z,-5.23
2023-02-08T03:17:56.058Z,-5.17
2023-02-08T03:21:10.853Z,-5.10
2023-02-08T03:24:29.213Z,-5.13
2023-02-08T03:27:40.663Z,-5.09
2023-02-08T03:30:55.065Z,-5.04
2023-02-08T03:34:07.962Z,-5.07
2023-02-08T03:37:17.658Z,-5.03
2023-02-08T03:40:29.578Z,-5.03
2023-02-08T03:43:40.184Z,-5.05
2023-02-08T03:46:52.966Z,-5.02
2023-02-08T03:50:03.992Z,-5.03
2023-02-08T03:53:10.404Z,-5.03
2023-02-08T03:56:22.248Z,-5.01
2023-02-08T03:59:32.289Z,-5.01
2023-02-08T04:02:45.019Z,-4.97
2023-02-08T04:05:49.432Z,-4.99
2023-02-08T04:08:53.227Z,-5.01
2023-02-08T04:11:58.845Z,-4.93
2023-02-08T04:15:02.623Z,-4.98
2023-02-08T04:18:06.956Z,-5.00
2023-02-08T04:21:10.769Z,-5.02
2023-02-08T04:24:14.560Z,-5.07
2023-02-08T04:27:19.680Z,-5.01
2023-02-08T04:30:23.378Z,-4.97
2023-02-08T04:33:27.192Z,-4.97
2023-02-08T04:36:31.059Z,-5.03
2023-02-08T04:39:34.955Z,-5.00
2023-02-08T04:42:40.021Z,-5.00
2023-02-08T04:45:43.774Z,-5.04
2023-02-08T04:48:47.394Z,-5.06
2023-02-08T04:51:51.210Z,-5.04
2023-02-08T04:54:54.905Z,-5.01
2023-02-08T04:58:00.183Z,-5.01
2023-02-08T05:01:07.720Z,-4.98
2023-02-08T05:04:11.992Z,-4.95
2023-02-08T05:07:15.697Z,-5.02
2023-02-08T05:10:19.623Z,-4.96
2023-02-08T05:13:24.772Z,-4.96
2023-02-08T05:16:28.646Z,-5.01
2023-02-08T05:19:33.366Z,-4.98
2023-02-08T05:22:37.242Z,-4.98
2023-02-08T05:25:42.101Z,-4.94
2023-02-08T05:29:08.030Z,-5.05
2023-02-08T05:32:11.804Z,-5.09
2023-02-08T05:35:15.638Z,-5.03
2023-02-08T05:38:19.278Z,-5.01
2023-02-08T05:41:23.238Z,-5.02
2023-02-08T05:44:28.558Z,-5.05
2023-02-08T05:47:32.299Z,-5.04
2023-02-08T05:50:36.030Z,-5.06
2023-02-08T05:53:40.261Z,-5.10
2023-02-08T05:56:44.683Z,-5.12
2023-02-08T05:59:50.123Z,-5.10
2023-02-08T06:02:54.102Z,-5.21
2023-02-08T06:06:02.120Z,-5.24
2023-02-08T06:09:05.950Z,-5.24
2023-02-08T06:12:09.909Z,-5.21
2023-02-08T06:15:15.259Z,-5.18
2023-02-08T06:18:18.976Z,-5.21
2023-02-08T06:21:24.498Z,-5.21
2023-02-08T06:24:28.453Z,-5.17
2023-02-08T06:27:32.161Z,-5.25
2023-02-08T06:30:37.904Z,-5.10
2023-02-08T06:33:41.697Z,-5.09
2023-02-08T06:36:45.810Z,-5.12
2023-02-08T06:39:49.517Z,-5.20
2023-02-08T06:42:53.255Z,-5.20
2023-02-08T06:45:58.558Z,-5.26
2023-02-08T06:49:02.312Z,-5.19
2023-02-08T06:52:06.488Z,-5.21
2023-02-08T06:55:10.357Z,-5.18
2023-02-08T06:58:14.207Z,-5.21
2023-02-08T07:01:19.351Z,-5.21
2023-02-08T07:04:23.161Z,-5.14
2023-02-08T07:07:27.034Z,-5.15
2023-02-08T07:10:30.780Z,-5.19
2023-02-08T07:13:34.490Z,-5.20
2023-02-08T07:16:39.713Z,-5.15
2023-02-08T07:19:43.428Z,-5.09
2023-02-08T07:22:47.147Z,-5.12
2023-02-08T07:25:59.758Z,-5.03
2023-02-08T07:29:03.502Z,-5.03
2023-02-08T07:32:09.985Z,-4.88
2023-02-08T07:35:13.827Z,-4.92
2023-02-08T07:38:20.591Z,-4.85
2023-02-08T07:41:24.521Z,-4.77
2023-02-08T07:44:28.355Z,-4.73
2023-02-08T07:47:33.591Z,-4.68
2023-02-08T07:50:38.098Z,-4.58
2023-02-08T07:53:41.934Z,-4.53
2023-02-08T07:56:45.711Z,-4.52
2023-02-08T07:59:49.558Z,-4.40
2023-02-08T08:02:55.390Z,-4.37
2023-02-08T08:05:59.194Z,-4.26
2023-02-08T08:09:02.999Z,-4.24
2023-02-08T08:12:07.098Z,-4.14
2023-02-08T08:15:11.628Z,-4.02
2023-02-08T08:18:27.073Z,-3.98
2023-02-08T08:21:32.830Z,-3.84
2023-02-08T08:24:36.756Z,-3.81
2023-02-08T08:27:42.524Z,-3.72
2023-02-08T08:30:47.290Z,-3.56
2023-02-08T08:33:52.634Z,-3.44
2023-02-08T08:36:56.341Z,-3.53
2023-02-08T08:39:59.989Z,-3.29
2023-02-08T08:43:03.954Z,-3.25
2023-02-08T08:46:08.712Z,-3.12
2023-02-08T08:49:14.039Z,-3.05
2023-02-08T08:52:18.271Z,-2.94
2023-02-08T08:55:22.056Z,-2.98
2023-02-08T08:58:25.798Z,-2.87
2023-02-08T09:01:29.699Z,-2.73
2023-02-08T09:04:35.352Z,-2.61
2023-02-08T09:07:39.255Z,-2.54
2023-02-08T09:10:43.248Z,-2.44
2023-02-08T09:13:47.114Z,-2.25
2023-02-08T09:16:50.807Z,-2.02
2023-02-08T09:19:56.586Z,-2.05
2023-02-08T09:23:00.323Z,-1.91
2023-02-08T09:26:05.162Z,-1.88
2023-02-08T09:29:09.327Z,-1.75
2023-02-08T09:32:13.220Z,-1.65
2023-02-08T09:35:18.454Z,-1.47
2023-02-08T09:38:22.182Z,-1.54
2023-02-08T09:41:57.759Z,-1.54
2023-02-08T09:45:31.002Z,-1.14
2023-02-08T09:48:39.221Z,-1.17
2023-02-08T09:51:51.549Z,-1.19
2023-02-08T09:55:01.635Z,-1.04
2023-02-08T09:58:17.233Z,-0.99
2023-02-08T10:01:25.529Z,-0.80
2023-02-08T10:04:42.477Z,-1.01
2023-02-08T10:07:47.960Z,-0.73
2023-02-08T10:10:57.618Z,-0.60
2023-02-08T10:14:36.466Z,-0.48
2023-02-08T10:18:12.827Z,-0.35
2023-02-08T10:21:52.604Z,-0.31
2023-02-08T10:25:29.182Z,-0.16
2023-02-08T10:29:01.888Z,-0.25
2023-02-08T10:32:35.340Z,-0.07
2023-02-08T10:35:44.621Z,-0.01
2023-02-08T10:38:52.645Z,-0.07
2023-02-08T10:41:58.079Z,-0.05
2023-02-08T10:45:24.265Z,0.05
2023-02-08T10:48:46.437Z,0.24
2023-02-08T10:51:50.698Z,0.38
2023-02-08T10:54:55.377Z,0.40
2023-02-08T10:58:04.738Z,0.51
2023-02-08T11:01:10.354Z,0.57
2023-02-08T11:04:15.048Z,0.75
2023-02-08T11:07:22.343Z,0.67
2023-02-08T11:10:27.850Z,0.77
2023-02-08T11:13:39.160Z,1.01
2023-02-08T11:16:44.077Z,0.95
2023-02-08T11:19:51.186Z,1.00
2023-02-08T11:22:55.591Z,0.90
2023-02-08T11:26:19.502Z,0.96
2023-02-08T11:29:27.223Z,1.00
2023-02-08T11:32:33.763Z,1.28
2023-02-08T11:35:37.936Z,1.42
2023-02-08T11:38:44.465Z,1.41
2023-02-08T11:41:53.539Z,1.47
2023-02-08T11:45:00.982Z,1.43
2023-02-08T11:48:07.380Z,1.53
2023-02-08T11:51:15.341Z,1.60
2023-02-08T11:54:50.648Z,1.50
2023-02-08T11:58:03.497Z,1.48
2023-02-08T12:01:21.443Z,1.60
2023-02-08T12:04:25.207Z,1.57
2023-02-08T12:07:59.993Z,1.74
2023-02-08T12:11:17.838Z,1.73
2023-02-08T12:14:56.479Z,1.83
2023-02-08T12:18:28.711Z,2.00
2023-02-08T12:21:41.889Z,2.05
2023-02-08T12:24:55.587Z,2.10
2023-02-08T12:28:14.533Z,2.17
2023-02-08T12:31:30.804Z,2.29
2023-02-08T12:34:55.698Z,2.35
2023-02-08T12:38:25.457Z,2.44
2023-02-08T12:41:37.691Z,2.45
2023-02-08T12:45:04.364Z,2.71
2023-02-08T12:48:31.986Z,2.77
2023-02-08T12:51:50.030Z,2.91
2023-02-08T12:54:58.377Z,2.86
2023-02-08T12:58:22.410Z,3.05
2023-02-08T13:01:33.201Z,3.06
2023-02-08T13:04:42.649Z,3.20
2023-02-08T13:07:52.770Z,3.31
2023-02-08T13:11:18.853Z,3.21
2023-02-08T13:14:33.603Z,3.46
2023-02-08T13:17:48.318Z,3.41
2023-02-08T13:20:58.643Z,3.48
2023-02-08T13:24:13.095Z,3.59
2023-02-08T13:27:20.030Z,3.74
2023-02-08T13:30:24.671Z,3.74
2023-02-08T13:33:59.316Z,3.55
2023-02-08T13:37:24.827Z,3.51
2023-02-08T13:40:35.330Z,3.58
2023-02-08T13:43:44.977Z,3.71
2023-02-08T13:46:52.604Z,3.72
2023-02-08T13:50:00.992Z,3.55
2023-02-08T13:53:05.763Z,3.56
2023-02-08T13:56:13.294Z,3.55
2023-02-08T13:59:41.893Z,3.65
2023-02-08T14:03:04.099Z,3.50
2023-02-08T14:06:20.582Z,3.44
2023-02-08T14:09:32.414Z,3.44
2023-02-08T14:12:46.619Z,3.34
2023-02-08T14:16:28.448Z,3.30
2023-02-08T14:19:34.572Z,3.30
2023-02-08T14:22:51.724Z,3.38
2023-02-08T14:25:59.599Z,3.41
2023-02-08T14:29:08.117Z,3.42
2023-02-08T14:32:25.189Z,3.39
2023-02-08T14:35:31.652Z,3.37
2023-02-08T14:39:06.680Z,3.22
2023-02-08T14:42:14.063Z,3.15
2023-02-08T14:45:33.035Z,3.15
2023-02-08T14:48:45.581Z,3.12
2023-02-08T14:51:58.017Z,3.08
2023-02-08T14:55:11.707Z,3.02
2023-02-08T14:58:28.212Z,2.99
2023-02-08T15:01:44.389Z,3.06
2023-02-08T15:04:49.009Z,2.94
2023-02-08T15:07:56.312Z,2.88
2023-02-08T15:11:00.618Z,2.77
2023-02-08T15:14:07.157Z,2.75
2023-02-08T15:17:28.587Z,2.65
2023-02-08T15:20:35.653Z,2.57
2023-02-08T15:23:39.510Z,2.43
2023-02-08T15:26:47.653Z,2.46
2023-02-08T15:29:52.073Z,2.39
2023-02-08T15:32:59.033Z,2.27
2023-02-08T15:36:07.263Z,2.26
2023-02-08T15:39:24.394Z,2.19
2023-02-08T15:42:33.216Z,2.08
2023-02-08T15:45:37.210Z,2.10
2023-02-08T15:48:45.812Z,1.94
2023-02-08T15:51:51.091Z,1.91
2023-02-08T15:54:54.881Z,1.78
2023-02-08T15:58:04.302Z,1.77
2023-02-08T16:01:10.295Z,1.83
2023-02-08T16:04:15.519Z,1.68
2023-02-08T16:07:29.398Z,1.56
2023-02-08T16:10:40.144Z,1.59
2023-02-08T16:13:51.671Z,1.42
2023-02-08T16:16:58.100Z,1.36
2023-02-08T16:20:04.185Z,1.31
2023-02-08T16:23:26.965Z,1.21
2023-02-08T16:26:36.851Z,1.25
2023-02-08T16:29:42.273Z,1.19
2023-02-08T16:32:46.900Z,1.17
2023-02-08T16:35:53.574Z,1.12
2023-02-08T16:39:46.900Z,1.14
2023-02-08T16:42:50.640Z,1.22
2023-02-08T16:46:27.783Z,1.11
2023-02-08T16:49:31.511Z,1.05
2023-02-08T16:52:37.433Z,0.97
2023-02-08T16:55:41.184Z,0.98
2023-02-08T16:58:44.916Z,1.04
2023-02-08T17:01:50.274Z,1.01
2023-02-08T17:04:54.676Z,0.88
2023-02-08T17:08:01.718Z,0.80
2023-02-08T17:11:06.914Z,0.78
2023-02-08T17:14:11.333Z,0.68
2023-02-08T17:17:15.158Z,0.62
2023-02-08T17:20:23.750Z,0.64
2023-02-08T17:23:29.036Z,0.57
2023-02-08T17:26:40.904Z,0.53
2023-02-08T17:29:44.788Z,0.49
2023-02-08T17:32:49.494Z,0.52
2023-02-08T17:35:54.203Z,0.46
2023-02-08T17:38:59.797Z,0.43
2023-02-08T17:42:03.509Z,0.40
2023-02-08T17:45:08.158Z,0.37
2023-02-08T17:48:13.513Z,0.36
2023-02-08T17:51:19.933Z,0.38
2023-02-08T17:54:25.071Z,0.29
2023-02-08T17:57:28.872Z,0.28
2023-02-08T18:00:34.785Z,0.12
2023-02-08T18:03:38.400Z,0.09
2023-02-08T18:06:42.083Z,0.03
2023-02-08T18:09:47.190Z,0.10
2023-02-08T18:12:51.318Z,0.10
2023-02-08T18:15:55.162Z,0.03
2023-02-08T18:19:01.908Z,0.17
2023-02-08T18:22:06.255Z,0.03
2023-02-08T18:25:14.390Z,-0.02
2023-02-08T18:28:18.149Z,-0.05
2023-02-08T18:31:22.957Z,-0.03
2023-02-08T18:34:27.848Z,-0.04
2023-02-08T18:37:32.218Z,-0.08
2023-02-08T18:40:37.476Z,-0.19
2023-02-08T18:43:42.136Z,-0.04
2023-02-08T18:46:47.893Z,-0.06
2023-02-08T18:49:55.702Z,-0.06
2023-02-08T18:52:59.507Z,-0.08
2023-02-08T18:56:07.178Z,-0.09
2023-02-08T18:59:11.753Z,-0.03
2023-02-08T19:02:22.065Z,-0.01
2023-02-08T19:05:26.128Z,-0.10
2023-02-08T19:08:29.867Z,-0.02
2023-02-08T19:11:37.369Z,-0.16
2023-02-08T19:14:41.223Z,-0.15
2023-02-08T19:17:44.954Z,-0.14
2023-02-08T19:20:48.643Z,-0.23
2023-02-08T19:23:55.652Z,-0.23
2023-02-08T19:27:01.099Z,-0.29
2023-02-08T19:30:06.973Z,-0.35
2023-02-08T19:33:10.670Z,-0.40
2023-02-08T19:36:18.449Z,-0.44
2023-02-08T19:39:25.613Z,-0.58
2023-02-08T19:42:30.871Z,-0.58
2023-02-08T19:45:44.692Z,-0.64
2023-02-08T19:48:49.136Z,-0.74
2023-02-08T19:51:52.969Z,-0.77
2023-02-08T19:54:56.653Z,-0.82
2023-02-08T19:58:02.105Z,-0.93
2023-02-08T20:01:09.118Z,-0.97
2023-02-08T20:04:13.705Z,-0.99
2023-02-08T20:07:17.607Z,-1.03
2023-02-08T20:10:21.583Z,-1.07
2023-02-08T20:13:26.682Z,-1.17
2023-02-08T20:16:32.137Z,-1.23
2023-02-08T20:19:38.858Z,-1.22
2023-02-08T20:22:42.745Z,-1.29
2023-02-08T20:25:46.749Z,-1.38
2023-02-08T20:28:55.506Z,-1.43
2023-02-08T20:31:59.767Z,-1.49
2023-02-08T20:35:04.030Z,-1.51
2023-02-08T20:38:07.718Z,-1.60
2023-02-08T20:41:15.413Z,-1.64
2023-02-08T20:44:20.762Z,-1.68
2023-02-08T20:47:24.996Z,-1.70
2023-02-08T20:50:30.950Z,-1.70
2023-02-08T20:53:35.691Z,-1.73
2023-02-08T20:56:40.515Z,-1.64
2023-02-08T20:59:46.703Z,-1.69
2023-02-08T21:02:50.497Z,-1.77
2023-02-08T21:05:54.508Z,-1.86
2023-02-08T21:08:59.235Z,-1.94
2023-02-08T21:12:03.114Z,-1.94
2023-02-08T21:15:10.439Z,-1.98
2023-02-08T21:18:14.147Z,-2.04
2023-02-08T21:21:19.236Z,-2.09
2023-02-08T21:24:24.010Z,-2.17
2023-02-08T21:27:27.774Z,-2.15
2023-02-08T21:30:33.113Z,-2.24
2023-02-08T21:33:37.035Z,-2.29
2023-02-08T21:36:41.244Z,-2.34
2023-02-08T21:39:47.206Z,-2.39
2023-02-08T21:42:51.032Z,-2.43
2023-02-08T21:45:56.306Z,-2.42
2023-02-08T21:49:18.227Z,-2.47
2023-02-08T21:52:39.358Z,-2.50
2023-02-08T21:55:47.597Z,-2.49
2023-02-08T21:58:51.433Z,-2.61
2023-02-08T22:01:56.750Z,-2.59
2023-02-08T22:05:22.107Z,-2.61
2023-02-08T22:08:26.071Z,-2.64
2023-02-08T22:11:29.872Z,-2.65
2023-02-08T22:14:36.228Z,-2.64
2023-02-08T22:17:41.731Z,-2.61
2023-02-08T22:20:45.774Z,-2.65
2023-02-08T22:23:49.864Z,-2.72
2023-02-08T22:26:53.582Z,-2.71
2023-02-08T22:29:57.392Z,-2.79
2023-02-08T22:33:02.551Z,-2.78
2023-02-08T22:36:08.567Z,-2.80
2023-02-08T22:39:12.454Z,-2.85
2023-02-08T22:42:16.260Z,-2.85
2023-02-08T22:45:20.160Z,-2.90
2023-02-08T22:48:25.324Z,-2.89
2023-02-08T22:51:29.008Z,-2.99
2023-02-08T22:54:32.888Z,-3.00
2023-02-08T22:57:37.367Z,-2.99
2023-02-08T23:00:44.600Z,-3.02
2023-02-08T23:03:49.957Z,-3.01
2023-02-08T23:06:53.683Z,-3.09
2023-02-08T23:09:57.369Z,-3.06
2023-02-08T23:13:01.575Z,-3.16
2023-02-08T23:16:05.886Z,-3.19
2023-02-08T23:19:15.128Z,-3.14
2023-02-08T23:22:18.814Z,-3.20
2023-02-08T23:25:22.995Z,-3.23
2023-02-08T23:28:26.872Z,-3.19
2023-02-08T23:31:30.900Z,-3.25
2023-02-08T23:34:37.113Z,-3.20
2023-02-08T23:37:41.097Z,-3.28
2023-02-08T23:40:45.025Z,-3.33
2023-02-08T23:43:50.739Z,-3.34
2023-02-08T23:46:54.537Z,-3.31
2023-02-08T23:49:59.786Z,-3.33
2023-02-08T23:53:03.477Z,-3.32
2023-02-08T23:56:15.347Z,-3.36
2023-02-08T23:59:19.078Z,-3.39
